Time;durP1;ratioP1;P1;durP2;ratioP2;P2;SDS_P1;SDS_P2;PMS_P1;PMS_P2;Temp;Humidity;BMP_temperature;BMP_pressure;BME280_temperature;BME280_humidity;BME280_pressure;Samples;Min_cycle;Max_cycle;Signal;HPM_P1;HPM_P2
2024/01/14 00:00:56;;;;;;;66.75;29.80;;;1.40;79.30;;;;;;5012503;28;20247;-80
2024/01/14 00:03:24;;;;;;;61.35;28.73;;;1.40;79.30;;;;;;5008312;28;20322;-80
2024/01/14 00:05:53;;;;;;;62.47;32.15;;;1.40;79.30;;;;;;5015588;28;20731;-80
2024/01/14 00:08:27;;;;;;;65.15;31.15;;;1.40;79.50;;;;;;5008807;28;20316;-80
2024/01/14 00:10:56;;;;;;;57.60;28.48;;;1.40;79.50;;;;;;5012297;28;20233;-80
2024/01/14 00:13:25;;;;;;;62.65;30.55;;;1.40;79.50;;;;;;5012683;28;20541;-80
2024/01/14 00:15:58;;;;;;;70.03;32.72;;;1.40;79.50;;;;;;5015265;28;20223;-80
2024/01/14 00:18:38;;;;;;;68.07;30.02;;;1.30;79.40;;;;;;5010770;28;20204;-80
2024/01/14 00:21:08;;;;;;;63.88;29.13;;;1.30;79.50;;;;;;5012411;28;20208;-80
2024/01/14 00:23:36;;;;;;;63.80;30.40;;;1.30;79.50;;;;;;5006460;28;20211;-79
2024/01/14 00:26:05;;;;;;;64.18;30.30;;;1.30;79.50;;;;;;5023993;28;20219;-79
2024/01/14 00:28:35;;;;;;;62.70;30.63;;;1.30;79.50;;;;;;5013530;28;20226;-80
2024/01/14 00:31:06;;;;;;;66.13;28.90;;;1.30;79.50;;;;;;5010575;28;20275;-80
2024/01/14 00:33:37;;;;;;;68.30;31.45;;;1.30;79.60;;;;;;5006928;28;20224;-80
2024/01/14 00:36:17;;;;;;;63.50;29.70;;;1.30;79.60;;;;;;5007619;28;20211;-80
2024/01/14 00:38:46;;;;;;;58.30;28.52;;;1.20;79.60;;;;;;5014337;28;20211;-80
2024/01/14 00:41:15;;;;;;;64.40;30.60;;;1.20;79.60;;;;;;5011986;28;20225;-80
2024/01/14 00:43:44;;;;;;;61.78;30.48;;;1.20;79.60;;;;;;5014967;28;20240;-80
2024/01/14 00:46:16;;;;;;;63.78;29.30;;;1.20;79.60;;;;;;5010307;28;20210;-80
2024/01/14 00:48:45;;;;;;;58.58;28.30;;;1.20;79.60;;;;;;5010009;28;20270;-81
2024/01/14 00:51:15;;;;;;;56.58;27.27;;;1.20;79.60;;;;;;5011543;28;20207;-80
2024/01/14 00:53:44;;;;;;;63.85;27.98;;;1.20;79.60;;;;;;5009618;28;20203;-80
2024/01/14 00:56:15;;;;;;;54.30;26.55;;;1.20;79.70;;;;;;5009498;28;20202;-80
2024/01/14 00:58:46;;;;;;;59.85;28.30;;;1.20;79.60;;;;;;5008074;28;20200;-80
2024/01/14 01:01:15;;;;;;;61.35;28.48;;;1.20;79.70;;;;;;5011485;28;20308;-80
2024/01/14 01:03:48;;;;;;;53.92;26.45;;;1.30;79.70;;;;;;5018487;28;20216;-80
2024/01/14 01:06:20;;;;;;;56.25;27.48;;;1.30;79.60;;;;;;5011782;28;20210;-80
2024/01/14 01:08:51;;;;;;;59.85;28.98;;;1.30;79.60;;;;;;5012641;28;21094;-80
2024/01/14 01:11:26;;;;;;;54.60;26.85;;;1.20;79.50;;;;;;5013030;28;20889;-80
2024/01/14 01:13:57;;;;;;;55.83;28.60;;;1.30;79.60;;;;;;5013168;28;20196;-80
2024/01/14 01:16:27;;;;;;;54.13;26.60;;;1.20;79.50;;;;;;5019758;28;20203;-80
2024/01/14 01:18:56;;;;;;;56.75;26.65;;;1.20;79.50;;;;;;5015071;28;20211;-80
2024/01/14 01:21:26;;;;;;;55.05;26.38;;;1.20;79.60;;;;;;5010566;28;20208;-80
2024/01/14 01:23:56;;;;;;;60.53;26.92;;;1.30;79.60;;;;;;5007727;28;20250;-80
2024/01/14 01:26:28;;;;;;;51.60;25.88;;;1.30;79.60;;;;;;5010841;28;20199;-80
2024/01/14 01:28:57;;;;;;;52.65;26.85;;;1.30;79.60;;;;;;5023481;28;20240;-80
2024/01/14 01:31:33;;;;;;;60.17;28.13;;;1.30;79.60;;;;;;5028722;28;20229;-81
2024/01/14 01:34:15;;;;;;;57.08;26.75;;;1.30;79.50;;;;;;5016779;28;20215;-81
2024/01/14 01:36:44;;;;;;;57.17;30.23;;;1.30;79.50;;;;;;5011908;28;20273;-82
2024/01/14 01:39:14;;;;;;;61.00;28.67;;;1.30;79.60;;;;;;5025858;28;20535;-81
2024/01/14 01:41:43;;;;;;;51.58;26.75;;;1.30;79.50;;;;;;5010063;28;20212;-80
2024/01/14 01:44:12;;;;;;;60.08;27.42;;;1.30;79.60;;;;;;5010336;28;20241;-81
2024/01/14 01:46:41;;;;;;;55.92;28.17;;;1.40;79.50;;;;;;5011791;28;20221;-79
2024/01/14 01:49:11;;;;;;;54.63;26.50;;;1.40;79.30;;;;;;5006263;28;20226;-79
2024/01/14 01:51:43;;;;;;;55.60;27.92;;;1.30;79.30;;;;;;5015823;28;20213;-80
2024/01/14 01:54:14;;;;;;;53.75;25.52;;;1.30;79.30;;;;;;5010943;28;20263;-80
2024/01/14 01:56:51;;;;;;;48.28;23.98;;;1.30;79.40;;;;;;5010029;28;20231;-80
2024/01/14 01:59:22;;;;;;;58.70;25.60;;;1.30;79.40;;;;;;5006431;28;20204;-79
2024/01/14 02:02:00;;;;;;;59.58;25.73;;;1.20;79.40;;;;;;5008109;28;20228;-79
2024/01/14 02:04:38;;;;;;;52.33;25.45;;;1.20;79.40;;;;;;5011455;28;20243;-80
2024/01/14 02:07:08;;;;;;;52.78;25.95;;;1.20;79.30;;;;;;5014269;28;20270;-80
2024/01/14 02:09:39;;;;;;;53.08;25.80;;;1.20;79.40;;;;;;5011727;28;20223;-79
2024/01/14 02:12:10;;;;;;;53.78;25.52;;;1.20;79.40;;;;;;5016333;28;20299;-80
2024/01/14 02:14:40;;;;;;;51.80;25.30;;;1.20;79.40;;;;;;5015865;28;20215;-79
2024/01/14 02:17:11;;;;;;;50.55;27.48;;;1.20;79.40;;;;;;5032089;28;20222;-79
2024/01/14 02:19:43;;;;;;;52.30;25.13;;;1.20;79.40;;;;;;5024501;28;20210;-79
2024/01/14 02:22:17;;;;;;;52.80;23.70;;;1.20;79.40;;;;;;5017760;28;20223;-79
2024/01/14 02:24:47;;;;;;;43.53;24.00;;;1.20;79.40;;;;;;5022941;28;20323;-79
2024/01/14 02:27:16;;;;;;;53.67;25.33;;;1.20;79.40;;;;;;5016421;28;20532;-80
2024/01/14 02:29:45;;;;;;;55.75;25.67;;;1.20;79.40;;;;;;5032818;28;20202;-79
2024/01/14 02:32:21;;;;;;;56.47;25.65;;;1.20;79.30;;;;;;5013535;28;20355;-79
2024/01/14 02:34:50;;;;;;;58.45;26.77;;;1.20;79.30;;;;;;5027562;28;20207;-79
2024/01/14 02:37:18;;;;;;;53.03;26.05;;;1.30;79.30;;;;;;5014815;28;20213;-79
2024/01/14 02:39:49;;;;;;;55.72;24.55;;;1.30;79.30;;;;;;5013510;28;20196;-80
2024/01/14 02:42:19;;;;;;;51.60;26.30;;;1.30;79.30;;;;;;5017027;28;20286;-79
2024/01/14 02:44:48;;;;;;;51.80;24.58;;;1.30;79.20;;;;;;5010020;28;20231;-80
2024/01/14 02:47:17;;;;;;;54.35;26.67;;;1.30;79.20;;;;;;5033377;28;20207;-79
2024/01/14 02:49:46;;;;;;;54.58;26.10;;;1.20;79.20;;;;;;5030210;28;20237;-81
2024/01/14 02:52:17;;;;;;;53.45;25.73;;;1.20;79.20;;;;;;5014047;28;20613;-81
2024/01/14 02:54:46;;;;;;;50.78;25.45;;;1.20;79.20;;;;;;5018891;28;20266;-80
2024/01/14 02:57:20;;;;;;;50.42;24.00;;;1.20;79.20;;;;;;5009374;28;20199;-81
2024/01/14 02:59:49;;;;;;;53.55;25.42;;;1.20;79.20;;;;;;5028492;28;20205;-80
2024/01/14 03:02:18;;;;;;;52.33;24.35;;;1.20;79.20;;;;;;4999547;28;20230;-80
2024/01/14 03:04:47;;;;;;;53.35;25.50;;;1.20;79.20;;;;;;5003765;28;20309;-80
2024/01/14 03:07:19;;;;;;;44.55;22.85;;;1.10;79.20;;;;;;5012220;28;20310;-80
2024/01/14 03:09:48;;;;;;;51.05;25.75;;;1.10;79.20;;;;;;5000806;28;20292;-80
2024/01/14 03:12:19;;;;;;;53.13;25.83;;;1.10;79.20;;;;;;5002203;28;20207;-80
2024/01/14 03:14:49;;;;;;;49.55;25.85;;;1.10;79.30;;;;;;4998167;28;20209;-80
2024/01/14 03:17:22;;;;;;;55.97;26.00;;;1.10;79.30;;;;;;4999167;28;20206;-80
2024/01/14 03:19:51;;;;;;;49.85;24.50;;;1.10;79.30;;;;;;4999398;28;20202;-81
2024/01/14 03:22:21;;;;;;;47.38;25.08;;;1.10;79.30;;;;;;4996966;28;20213;-80
2024/01/14 03:24:53;;;;;;;51.03;27.17;;;1.10;79.30;;;;;;5008760;28;20223;-79
2024/01/14 03:27:25;;;;;;;47.67;24.60;;;1.10;79.30;;;;;;4995464;28;22126;-80
2024/01/14 03:29:57;;;;;;;47.95;25.30;;;1.10;79.30;;;;;;4994951;28;20209;-80
2024/01/14 03:32:32;;;;;;;48.90;23.85;;;1.10;79.30;;;;;;5003942;28;20238;-80
2024/01/14 03:35:11;;;;;;;51.72;24.65;;;1.10;79.30;;;;;;4997694;28;20226;-80
2024/01/14 03:37:39;;;;;;;46.95;24.33;;;1.10;79.30;;;;;;4995054;28;20203;-80
2024/01/14 03:40:11;;;;;;;50.33;24.38;;;1.10;79.30;;;;;;5015061;28;20249;-81
2024/01/14 03:42:41;;;;;;;47.78;23.48;;;1.10;79.40;;;;;;4991448;28;20700;-79
2024/01/14 03:45:10;;;;;;;46.65;23.85;;;1.10;79.30;;;;;;4993762;28;20235;-79
2024/01/14 03:47:38;;;;;;;50.78;25.45;;;1.10;79.20;;;;;;4990494;28;20242;-80
2024/01/14 03:50:08;;;;;;;49.50;25.85;;;1.10;79.30;;;;;;5009403;28;20282;-80
2024/01/14 03:52:37;;;;;;;53.28;24.27;;;1.20;79.30;;;;;;5009890;28;20214;-80
2024/01/14 03:55:06;;;;;;;52.88;24.75;;;1.20;79.30;;;;;;4988685;28;20218;-79
2024/01/14 03:57:36;;;;;;;54.30;25.17;;;1.20;79.20;;;;;;4997637;28;20203;-81
2024/01/14 04:00:08;;;;;;;50.92;26.10;;;1.20;79.20;;;;;;4994674;28;20236;-80
2024/01/14 04:02:40;;;;;;;54.42;25.38;;;1.20;79.30;;;;;;4997463;28;20290;-81
2024/01/14 04:05:10;;;;;;;54.88;24.80;;;1.20;79.20;;;;;;5008877;28;20228;-77
2024/01/14 04:07:44;;;;;;;53.83;24.35;;;1.20;79.20;;;;;;4992065;28;20236;-79
2024/01/14 04:10:16;;;;;;;51.60;24.83;;;1.20;79.30;;;;;;5009641;28;20624;-81
2024/01/14 04:12:45;;;;;;;51.70;25.35;;;1.20;79.20;;;;;;5011619;28;20253;-81
2024/01/14 04:15:21;;;;;;;47.08;23.95;;;1.20;79.20;;;;;;5010080;28;20595;-80
2024/01/14 04:17:53;;;;;;;58.47;26.85;;;1.20;79.20;;;;;;4998392;28;20217;-82
2024/01/14 04:20:25;;;;;;;52.17;24.52;;;1.20;79.20;;;;;;5010227;28;20208;-80
2024/01/14 04:22:54;;;;;;;49.40;24.70;;;1.20;79.20;;;;;;5009514;28;20217;-80
2024/01/14 04:25:23;;;;;;;50.50;24.35;;;1.20;79.20;;;;;;5009415;28;20230;-81
2024/01/14 04:27:53;;;;;;;51.67;25.45;;;1.20;79.10;;;;;;5011465;28;20310;-81
2024/01/14 04:30:25;;;;;;;50.72;25.38;;;1.20;79.20;;;;;;4992859;28;20207;-81
2024/01/14 04:32:54;;;;;;;52.22;24.45;;;1.20;79.20;;;;;;4995071;28;20298;-81
2024/01/14 04:35:25;;;;;;;52.47;24.85;;;1.20;79.20;;;;;;5008982;28;20194;-81
2024/01/14 04:37:57;;;;;;;53.75;24.85;;;1.20;79.10;;;;;;4992507;28;20216;-80
2024/01/14 04:40:30;;;;;;;54.15;26.05;;;1.30;79.10;;;;;;4996692;28;20190;-80
2024/01/14 04:43:06;;;;;;;50.55;24.08;;;1.30;79.10;;;;;;4993199;28;20215;-81
2024/01/14 04:45:36;;;;;;;42.90;22.77;;;1.30;79.20;;;;;;5008396;28;20225;-81
2024/01/14 04:48:05;;;;;;;56.30;25.98;;;1.30;79.00;;;;;;4993607;28;20217;-81
2024/01/14 04:50:33;;;;;;;51.50;25.10;;;1.30;79.10;;;;;;4992867;28;20205;-82
2024/01/14 04:53:04;;;;;;;50.88;25.23;;;1.30;79.00;;;;;;4991565;28;20287;-82
2024/01/14 04:55:32;;;;;;;50.03;24.45;;;1.30;79.00;;;;;;4993866;28;20225;-82
2024/01/14 04:58:01;;;;;;;52.08;25.65;;;1.20;78.90;;;;;;4993994;28;20301;-81
2024/01/14 05:00:29;;;;;;;55.40;26.00;;;1.20;79.00;;;;;;4997310;28;20309;-81
2024/01/14 05:02:59;;;;;;;59.28;27.30;;;1.20;79.00;;;;;;4994872;28;20219;-81
2024/01/14 05:05:33;;;;;;;49.17;24.25;;;1.20;79.00;;;;;;4991169;28;20217;-81
2024/01/14 05:08:03;;;;;;;57.20;26.17;;;1.20;79.10;;;;;;5011760;28;20216;-81
2024/01/14 05:10:31;;;;;;;57.80;24.50;;;1.20;79.00;;;;;;5011732;28;20216;-81
2024/01/14 05:13:03;;;;;;;51.13;24.75;;;1.20;79.00;;;;;;4993633;28;20231;-81
2024/01/14 05:15:33;;;;;;;45.15;24.45;;;1.20;79.00;;;;;;5011081;28;20279;-81
2024/01/14 05:18:02;;;;;;;58.25;26.83;;;1.20;79.00;;;;;;4987741;28;20211;-82
2024/01/14 05:20:31;;;;;;;55.90;23.40;;;1.20;78.90;;;;;;4994106;28;20632;-82
2024/01/14 05:23:03;;;;;;;55.70;25.25;;;1.20;78.90;;;;;;4997650;28;20624;-80
2024/01/14 05:25:32;;;;;;;54.47;24.40;;;1.20;78.80;;;;;;4987426;28;20288;-80
2024/01/14 05:28:01;;;;;;;57.80;25.48;;;1.20;78.80;;;;;;4994758;28;20306;-82
2024/01/14 05:30:30;;;;;;;59.85;23.80;;;1.10;78.90;;;;;;4993984;28;21097;-81
2024/01/14 05:32:59;;;;;;;51.10;24.77;;;1.10;78.80;;;;;;4994810;28;20215;-81
2024/01/14 05:35:32;;;;;;;61.15;28.05;;;1.00;78.80;;;;;;4990925;28;20262;-81
2024/01/14 05:38:01;;;;;;;50.83;24.35;;;1.00;78.70;;;;;;4994246;28;20216;-81
2024/01/14 05:40:32;;;;;;;52.45;24.00;;;1.00;78.80;;;;;;4993178;28;20218;-80
2024/01/14 05:43:01;;;;;;;56.35;24.10;;;0.80;78.70;;;;;;4989986;28;20218;-80
2024/01/14 05:45:39;;;;;;;56.28;24.58;;;0.80;78.70;;;;;;4993930;28;20302;-79
2024/01/14 05:48:09;;;;;;;50.10;23.23;;;0.70;78.90;;;;;;4994078;28;20240;-79
2024/01/14 05:50:39;;;;;;;58.25;25.63;;;0.60;79.00;;;;;;4988930;28;20264;-79
2024/01/14 05:53:08;;;;;;;50.55;22.90;;;0.60;79.10;;;;;;4989505;28;20627;-79
2024/01/14 05:55:37;;;;;;;52.15;23.77;;;0.60;79.10;;;;;;4992039;28;20305;-79
2024/01/14 05:58:16;;;;;;;60.28;23.75;;;0.50;79.10;;;;;;5000295;28;20239;-81
2024/01/14 06:00:45;;;;;;;50.83;22.63;;;0.50;79.20;;;;;;4996733;28;20313;-80
2024/01/14 06:03:17;;;;;;;57.63;22.15;;;0.50;79.30;;;;;;4990516;28;20207;-81
2024/01/14 06:05:47;;;;;;;46.55;21.58;;;0.40;79.40;;;;;;4996906;28;20703;-80
2024/01/14 06:08:17;;;;;;;49.22;23.15;;;0.50;79.40;;;;;;4998078;28;20207;-80
2024/01/14 06:10:45;;;;;;;51.42;22.55;;;0.40;79.40;;;;;;4989621;28;20199;-80
2024/01/14 06:13:14;;;;;;;54.53;21.95;;;0.40;79.40;;;;;;5005605;28;20294;-81
2024/01/14 06:15:43;;;;;;;51.60;21.92;;;0.40;79.50;;;;;;4999935;28;20201;-80
2024/01/14 06:18:12;;;;;;;44.95;21.92;;;0.40;79.60;;;;;;5002400;28;20198;-81
2024/01/14 06:20:49;;;;;;;49.85;22.02;;;0.40;79.50;;;;;;4989981;28;20248;-81
2024/01/14 06:23:18;;;;;;;46.38;20.33;;;0.40;79.50;;;;;;4994971;28;20219;-81
2024/01/14 06:25:50;;;;;;;46.85;20.90;;;0.40;79.40;;;;;;4993414;28;20237;-80
2024/01/14 06:28:19;;;;;;;57.33;22.45;;;0.30;79.40;;;;;;4991087;28;20225;-80
2024/01/14 06:30:48;;;;;;;43.53;19.80;;;0.30;79.50;;;;;;5001536;28;20233;-80
2024/01/14 06:33:17;;;;;;;43.78;20.15;;;0.30;79.50;;;;;;5009462;28;20708;-80
2024/01/14 06:35:50;;;;;;;46.38;20.55;;;0.30;79.60;;;;;;5026559;28;20286;-80
2024/01/14 06:38:19;;;;;;;52.33;21.13;;;0.20;79.70;;;;;;5019373;28;20804;-80
2024/01/14 06:40:51;;;;;;;40.97;19.27;;;0.20;79.70;;;;;;5014085;28;20256;-80
2024/01/14 06:43:37;;;;;;;47.92;19.95;;;0.20;79.80;;;;;;5028788;28;20209;-80
2024/01/14 06:46:07;;;;;;;47.95;19.55;;;0.20;79.80;;;;;;5012873;28;20281;-80
2024/01/14 06:48:36;;;;;;;44.88;19.90;;;0.20;79.80;;;;;;5031435;28;20239;-81
2024/01/14 06:51:07;;;;;;;49.65;21.58;;;0.20;79.90;;;;;;5011873;28;20606;-80
2024/01/14 06:53:38;;;;;;;47.10;20.10;;;0.20;79.80;;;;;;5011145;28;20581;-81
2024/01/14 06:56:10;;;;;;;43.13;18.38;;;0.30;79.70;;;;;;5009551;28;20627;-81
2024/01/14 06:58:39;;;;;;;43.42;19.80;;;0.20;79.80;;;;;;5031801;28;20214;-80
2024/01/14 07:01:09;;;;;;;46.83;20.48;;;0.20;79.80;;;;;;5020263;28;20227;-81
2024/01/14 07:03:42;;;;;;;53.80;20.90;;;0.20;79.80;;;;;;5016950;28;20201;-80
2024/01/14 07:06:16;;;;;;;44.25;20.10;;;0.20;79.80;;;;;;5029769;28;20703;-80
2024/01/14 07:08:45;;;;;;;42.85;19.63;;;0.20;79.80;;;;;;5018840;28;20214;-81
2024/01/14 07:11:14;;;;;;;43.08;20.30;;;0.20;79.90;;;;;;5023334;28;20226;-81
2024/01/14 07:13:45;;;;;;;44.20;19.10;;;0.10;79.90;;;;;;5013010;28;20230;-81
2024/01/14 07:16:14;;;;;;;45.80;20.52;;;0.20;79.90;;;;;;5017515;28;20209;-80
2024/01/14 07:18:47;;;;;;;44.35;20.25;;;0.20;79.90;;;;;;5017381;28;20217;-81
2024/01/14 07:21:20;;;;;;;43.22;19.45;;;0.10;79.90;;;;;;5016208;28;20232;-81
2024/01/14 07:23:55;;;;;;;53.83;20.27;;;0.20;79.90;;;;;;5016492;28;20860;-81
2024/01/14 07:26:24;;;;;;;44.95;19.23;;;0.20;80.00;;;;;;5032799;28;20228;-81
2024/01/14 07:28:53;;;;;;;46.15;19.77;;;0.10;79.90;;;;;;5009398;28;20246;-82
2024/01/14 07:31:22;;;;;;;41.80;18.58;;;0.20;79.90;;;;;;5015216;28;20233;-81
2024/01/14 07:33:51;;;;;;;42.38;18.27;;;0.20;80.00;;;;;;5015105;28;20214;-81
2024/01/14 07:36:29;;;;;;;38.78;20.02;;;0.20;80.00;;;;;;5014308;28;20654;-81
2024/01/14 07:39:00;;;;;;;42.38;19.20;;;0.20;80.00;;;;;;5006542;28;20721;-81
2024/01/14 07:41:33;;;;;;;43.17;17.42;;;0.20;79.90;;;;;;5033741;28;20233;-81
2024/01/14 07:44:05;;;;;;;40.80;17.52;;;0.20;80.00;;;;;;5020340;28;20293;-81
2024/01/14 07:46:36;;;;;;;41.83;18.63;;;0.20;80.00;;;;;;5017217;28;20213;-81
2024/01/14 07:49:05;;;;;;;40.42;18.83;;;0.30;79.90;;;;;;5018969;28;20236;-81
2024/01/14 07:51:39;;;;;;;47.88;18.67;;;0.20;80.00;;;;;;5011050;28;20292;-80
2024/01/14 07:54:10;;;;;;;43.33;18.77;;;0.30;79.90;;;;;;5030726;28;20205;-80
2024/01/14 07:56:38;;;;;;;38.70;17.20;;;0.30;79.90;;;;;;5012002;28;20198;-80
2024/01/14 07:59:12;;;;;;;46.70;19.85;;;0.30;79.80;;;;;;5017475;28;20222;-81
2024/01/14 08:02:16;;;;;;;45.78;17.92;;;0.30;79.80;;;;;;5012633;28;20306;-81
2024/01/14 08:04:47;;;;;;;47.85;18.90;;;0.20;79.90;;;;;;5027921;28;20214;-81
2024/01/14 08:07:28;;;;;;;42.50;18.65;;;0.20;80.00;;;;;;5011313;28;20235;-81
2024/01/14 08:10:07;;;;;;;38.22;18.85;;;0.20;80.00;;;;;;5015316;28;20594;-80
2024/01/14 08:12:45;;;;;;;52.80;19.58;;;0.30;80.00;;;;;;5008992;28;20290;-82
2024/01/14 08:15:15;;;;;;;39.67;18.25;;;0.30;79.90;;;;;;5013781;28;20240;-82
2024/01/14 08:17:44;;;;;;;48.75;20.05;;;0.30;79.80;;;;;;5017277;28;20190;-81
2024/01/14 08:20:13;;;;;;;48.30;19.50;;;0.30;79.80;;;;;;5016308;28;20227;-81
2024/01/14 08:22:48;;;;;;;46.05;19.48;;;0.20;79.80;;;;;;5009913;28;20207;-81
2024/01/14 08:25:17;;;;;;;47.17;19.58;;;0.20;79.80;;;;;;5025882;28;20209;-80
2024/01/14 08:27:48;;;;;;;50.28;19.63;;;0.20;79.90;;;;;;5027099;28;20222;-80
2024/01/14 08:30:17;;;;;;;42.95;18.42;;;0.20;79.90;;;;;;5013596;28;20267;-80
2024/01/14 08:32:46;;;;;;;46.35;18.80;;;0.20;79.90;;;;;;5009997;28;20230;-82
2024/01/14 08:35:18;;;;;;;58.40;20.60;;;0.20;80.00;;;;;;5012250;28;20218;-75
2024/01/14 08:37:53;;;;;;;42.70;18.17;;;0.20;80.00;;;;;;4998481;28;20203;-76
2024/01/14 08:40:27;;;;;;;50.10;20.45;;;0.20;80.00;;;;;;5018857;28;20201;-75
2024/01/14 08:42:55;;;;;;;45.35;19.55;;;0.20;80.00;;;;;;5002424;28;20219;-75
2024/01/14 08:45:27;;;;;;;47.53;20.30;;;0.30;79.90;;;;;;4997575;28;20215;-74
2024/01/14 08:47:56;;;;;;;41.72;17.90;;;0.30;79.80;;;;;;5000663;28;20224;-74
2024/01/14 08:50:25;;;;;;;43.20;19.17;;;0.30;79.90;;;;;;4999510;28;20298;-75
2024/01/14 08:53:00;;;;;;;50.28;18.98;;;0.30;79.90;;;;;;5000058;28;20229;-75
2024/01/14 08:55:31;;;;;;;45.47;18.15;;;0.40;79.90;;;;;;5002873;28;20220;-75
2024/01/14 08:58:03;;;;;;;39.60;18.60;;;0.40;79.90;;;;;;5003943;28;20203;-76
2024/01/14 09:00:34;;;;;;;41.15;19.23;;;0.40;79.80;;;;;;4991574;28;20247;-75
2024/01/14 09:03:07;;;;;;;42.92;17.80;;;0.40;79.80;;;;;;5012198;28;20856;-76
2024/01/14 09:05:38;;;;;;;39.83;16.27;;;0.50;79.80;;;;;;5000083;28;20755;-76
2024/01/14 09:08:10;;;;;;;47.38;17.65;;;0.50;79.80;;;;;;5017709;28;21861;-76
2024/01/14 09:10:38;;;;;;;40.83;16.90;;;0.50;79.80;;;;;;5013490;28;20222;-76
2024/01/14 09:13:12;;;;;;;42.78;17.00;;;0.50;79.80;;;;;;5019771;28;20196;-75
2024/01/14 09:15:44;;;;;;;40.55;16.92;;;0.50;79.70;;;;;;5002093;28;20202;-75
2024/01/14 09:18:13;;;;;;;37.70;17.15;;;0.50;79.70;;;;;;5019756;28;20252;-75
2024/01/14 09:20:42;;;;;;;43.30;16.83;;;0.50;79.60;;;;;;4998806;28;20210;-75
2024/01/14 09:23:23;;;;;;;41.83;18.10;;;0.50;79.70;;;;;;4998568;28;20210;-75
2024/01/14 09:25:54;;;;;;;44.08;16.88;;;0.50;79.70;;;;;;5014173;28;20217;-75
2024/01/14 09:28:25;;;;;;;42.05;17.20;;;0.50;79.70;;;;;;5002187;28;20225;-76
2024/01/14 09:30:57;;;;;;;35.78;15.98;;;0.50;79.70;;;;;;5002045;28;20243;-76
2024/01/14 09:33:27;;;;;;;41.80;17.60;;;0.50;79.70;;;;;;5014716;28;20228;-76
2024/01/14 09:35:57;;;;;;;35.85;16.05;;;0.50;79.60;;;;;;4999881;28;20916;-77
2024/01/14 09:38:41;;;;;;;39.55;18.92;;;0.60;79.70;;;;;;5016588;28;20217;-77
2024/01/14 09:41:22;;;;;;;40.38;17.95;;;0.60;79.70;;;;;;5017961;28;20213;-80
2024/01/14 09:43:52;;;;;;;43.42;18.08;;;0.50;79.70;;;;;;4999248;28;20561;-76
2024/01/14 09:46:24;;;;;;;43.42;18.02;;;0.50;79.70;;;;;;5004311;28;20213;-76
2024/01/14 09:49:02;;;;;;;43.10;18.45;;;0.60;79.70;;;;;;5018207;28;20875;-76
2024/01/14 09:51:33;;;;;;;50.90;19.10;;;0.60;79.70;;;;;;5008543;28;20641;-76
2024/01/14 09:54:05;;;;;;;43.72;19.42;;;0.60;79.80;;;;;;5003573;28;20210;-76
2024/01/14 09:56:36;;;;;;;40.90;18.33;;;0.70;79.80;;;;;;5003817;28;20301;-75
2024/01/14 09:59:08;;;;;;;43.70;19.70;;;0.70;79.70;;;;;;5003099;28;20669;-74
2024/01/14 10:01:39;;;;;;;52.67;18.92;;;0.70;79.50;;;;;;5002373;28;20314;-75
2024/01/14 10:04:08;;;;;;;41.28;19.02;;;0.70;79.60;;;;;;5001674;28;20207;-75
2024/01/14 10:06:50;;;;;;;44.70;19.48;;;0.70;79.50;;;;;;5017539;28;20210;-75
2024/01/14 10:09:29;;;;;;;52.80;22.50;;;0.70;79.60;;;;;;4997668;28;20906;-75
2024/01/14 10:11:57;;;;;;;47.58;19.08;;;0.80;79.60;;;;;;5011920;28;20208;-75
2024/01/14 10:14:38;;;;;;;41.22;18.67;;;0.80;79.50;;;;;;5002430;28;20238;-76
2024/01/14 10:17:08;;;;;;;44.03;19.58;;;0.80;79.50;;;;;;5018730;28;20226;-76
2024/01/14 10:19:37;;;;;;;40.05;18.38;;;0.80;79.30;;;;;;5005243;28;20216;-76
2024/01/14 10:22:09;;;;;;;47.63;20.20;;;0.80;79.30;;;;;;5008248;28;20213;-75
2024/01/14 10:24:57;;;;;;;48.90;20.45;;;0.80;79.40;;;;;;5006549;28;20332;-76
2024/01/14 10:27:27;;;;;;;45.22;20.10;;;0.80;79.50;;;;;;5008126;28;20214;-75
2024/01/14 10:30:10;;;;;;;40.80;19.45;;;0.80;79.50;;;;;;5007663;28;20542;-75
2024/01/14 10:32:45;;;;;;;37.13;17.40;;;0.80;79.50;;;;;;5013730;28;20264;-75
2024/01/14 10:35:42;;;;;;;43.10;19.40;;;0.80;79.40;;;;;;5005493;28;20260;-75
2024/01/14 10:38:12;;;;;;;43.50;18.73;;;0.80;79.40;;;;;;5021486;28;20268;-76
2024/01/14 10:40:41;;;;;;;45.45;19.52;;;0.80;79.40;;;;;;5005675;28;20699;-75
2024/01/14 10:43:10;;;;;;;42.70;19.00;;;0.90;79.40;;;;;;5002108;28;20224;-76
2024/01/14 10:45:38;;;;;;;48.55;19.13;;;0.90;79.40;;;;;;5004309;28;20201;-76
2024/01/14 10:48:12;;;;;;;48.22;20.52;;;0.90;79.30;;;;;;5003931;28;20660;-76
2024/01/14 10:50:43;;;;;;;48.08;21.88;;;0.90;79.10;;;;;;5006386;28;20284;-76
2024/01/14 10:53:31;;;;;;;47.75;20.55;;;0.90;79.30;;;;;;5004959;28;20205;-76
2024/01/14 10:56:03;;;;;;;41.90;19.30;;;0.90;79.30;;;;;;5005206;28;20206;-76
2024/01/14 10:58:36;;;;;;;37.83;18.55;;;1.00;79.30;;;;;;5003800;28;20216;-76
2024/01/14 11:01:08;;;;;;;43.42;18.13;;;1.00;79.30;;;;;;5003703;28;20236;-76
2024/01/14 11:03:35;;;;;;;47.20;20.30;;;1.00;79.20;;;;;;5005646;28;20335;-76
2024/01/14 11:06:05;;;;;;;45.85;19.88;;;1.00;79.20;;;;;;5007522;28;20215;-76
2024/01/14 11:08:34;;;;;;;44.70;18.80;;;1.10;79.20;;;;;;5006860;28;20231;-76
2024/01/14 11:11:05;;;;;;;45.72;20.70;;;1.10;79.20;;;;;;5006372;28;20212;-75
2024/01/14 11:13:38;;;;;;;49.85;20.58;;;1.10;79.10;;;;;;5007027;28;20203;-75
2024/01/14 11:16:16;;;;;;;49.25;19.65;;;1.20;79.10;;;;;;5004313;28;20209;-75
2024/01/14 11:18:53;;;;;;;40.88;19.60;;;1.20;79.00;;;;;;5018281;28;20216;-76
2024/01/14 11:21:32;;;;;;;41.83;19.48;;;1.10;78.90;;;;;;5007216;28;20210;-76
2024/01/14 11:24:24;;;;;;;45.35;19.95;;;1.10;79.00;;;;;;5002677;28;20965;-76
2024/01/14 11:26:54;;;;;;;45.65;19.88;;;1.10;79.00;;;;;;5008529;28;20259;-75
2024/01/14 11:29:33;;;;;;;51.33;20.98;;;1.10;79.00;;;;;;5001728;28;20233;-75
2024/01/14 11:32:09;;;;;;;48.47;21.88;;;1.10;79.00;;;;;;5000819;28;20227;-75
2024/01/14 11:34:57;;;;;;;40.67;20.60;;;1.10;79.00;;;;;;5001674;28;20205;-75
2024/01/14 11:37:39;;;;;;;53.88;21.88;;;1.10;79.00;;;;;;5004836;28;20209;-75
2024/01/14 11:40:29;;;;;;;46.38;21.30;;;1.10;79.00;;;;;;5018465;28;20730;-75
2024/01/14 11:43:07;;;;;;;48.80;20.00;;;1.20;79.10;;;;;;5001525;28;20232;-74
2024/01/14 11:45:37;;;;;;;46.63;19.88;;;1.20;79.10;;;;;;5018236;28;20843;-75
2024/01/14 11:48:08;;;;;;;47.00;21.30;;;1.30;79.20;;;;;;5004517;28;20234;-75
2024/01/14 11:50:37;;;;;;;48.78;20.70;;;1.30;79.00;;;;;;5002568;28;20205;-75
2024/01/14 11:53:09;;;;;;;43.95;19.52;;;1.30;79.00;;;;;;5007096;28;20211;-75
2024/01/14 11:55:37;;;;;;;47.97;19.65;;;1.30;78.90;;;;;;5003638;28;20196;-76
2024/01/14 11:58:13;;;;;;;50.35;21.10;;;1.30;78.90;;;;;;5002401;28;20306;-74
2024/01/14 12:00:42;;;;;;;45.65;20.80;;;1.40;78.80;;;;;;5002987;28;20227;-76
2024/01/14 12:03:13;;;;;;;49.80;21.25;;;1.40;78.80;;;;;;5003848;28;20235;-76
2024/01/14 12:05:46;;;;;;;42.90;18.85;;;1.40;78.70;;;;;;5013420;28;20202;-76
2024/01/14 12:08:26;;;;;;;40.95;19.95;;;1.40;78.60;;;;;;5005468;28;20667;-76
2024/01/14 12:11:01;;;;;;;47.60;21.00;;;1.40;78.60;;;;;;5006349;28;20210;-76
2024/01/14 12:13:38;;;;;;;45.50;19.40;;;1.40;78.60;;;;;;5005853;28;20241;-74
2024/01/14 12:16:08;;;;;;;49.00;20.17;;;1.40;78.60;;;;;;4999790;28;20198;-76
2024/01/14 12:18:41;;;;;;;52.92;21.88;;;1.40;78.60;;;;;;5003723;28;20885;-76
2024/01/14 12:21:21;;;;;;;49.75;20.58;;;1.40;78.60;;;;;;5006415;28;20702;-76
2024/01/14 12:24:05;;;;;;;53.47;20.55;;;1.40;78.60;;;;;;5004803;28;20215;-76
2024/01/14 12:26:34;;;;;;;54.45;22.17;;;1.40;78.60;;;;;;5003926;28;20222;-76
2024/01/14 12:29:07;;;;;;;42.78;20.48;;;1.50;78.50;;;;;;4998650;28;20221;-76
2024/01/14 12:31:36;;;;;;;48.30;20.45;;;1.50;78.50;;;;;;5001060;28;20313;-76
2024/01/14 12:34:08;;;;;;;50.45;21.70;;;1.50;78.50;;;;;;5003167;28;20203;-76
2024/01/14 12:36:36;;;;;;;47.70;20.27;;;1.50;78.50;;;;;;5006800;28;20207;-76
2024/01/14 12:39:17;;;;;;;50.50;21.70;;;1.50;78.50;;;;;;5004960;28;20208;-76
2024/01/14 12:41:59;;;;;;;52.38;21.92;;;1.50;78.40;;;;;;5001699;28;20237;-76
2024/01/14 12:44:32;;;;;;;53.25;22.42;;;1.50;78.50;;;;;;5017770;28;20200;-76
2024/01/14 12:47:07;;;;;;;47.72;21.40;;;1.60;78.50;;;;;;5003681;28;20686;-76
2024/01/14 12:49:36;;;;;;;48.25;21.45;;;1.60;78.40;;;;;;5005033;28;20693;-76
2024/01/14 12:52:08;;;;;;;49.50;21.30;;;1.60;78.40;;;;;;4999220;28;20195;-77
2024/01/14 12:54:41;;;;;;;47.20;20.80;;;1.60;78.40;;;;;;5001431;28;20186;-76
2024/01/14 12:57:12;;;;;;;46.45;21.65;;;1.60;78.50;;;;;;5012539;28;20211;-76
2024/01/14 12:59:54;;;;;;;48.72;21.67;;;1.60;78.40;;;;;;4999113;28;20199;-76